createdAt,value
2019-04-03T00:01:48.731Z,65.20
2019-04-03T00:04:19.572Z,65.20
2019-04-03T00:06:49.330Z,66.00
2019-04-03T00:09:19.045Z,65.30
2019-04-03T00:11:48.825Z,65.30
2019-04-03T00:14:18.550Z,65.20
2019-04-03T00:16:48.258Z,65.20
2019-04-03T00:19:18.166Z,65.30
2019-04-03T00:21:50.183Z,65.30
2019-04-03T00:24:22.231Z,65.30
2019-04-03T00:26:52.962Z,65.40
2019-04-03T00:29:22.947Z,65.20
2019-04-03T00:31:53.875Z,65.50
2019-04-03T00:34:24.003Z,65.40
2019-04-03T00:36:54.829Z,65.30
2019-04-03T00:39:24.914Z,65.40
2019-04-03T00:41:55.148Z,65.20
2019-04-03T00:44:24.897Z,65.40
2019-04-03T00:46:55.591Z,65.50
2019-04-03T00:49:26.480Z,65.50
2019-04-03T00:51:58.042Z,65.40
2019-04-03T00:54:30.596Z,65.60
2019-04-03T00:56:59.401Z,65.50
2019-04-03T00:59:29.197Z,65.60
2019-04-03T01:01:58.922Z,65.40
2019-04-03T01:04:29.726Z,65.30
2019-04-03T01:06:59.513Z,65.60
2019-04-03T01:09:29.923Z,65.30
2019-04-03T01:12:00.907Z,65.30
2019-04-03T01:14:31.581Z,65.20
2019-04-03T01:17:04.079Z,65.20
2019-04-03T01:19:36.106Z,65.10
2019-04-03T01:22:05.658Z,65.00
2019-04-03T01:24:36.771Z,64.90
2019-04-03T01:27:08.283Z,65.00
2019-04-03T01:29:42.224Z,65.00
2019-04-03T01:32:11.310Z,64.90
2019-04-03T01:34:41.038Z,65.00
2019-04-03T01:37:10.786Z,64.90
2019-04-03T01:39:40.593Z,65.00
2019-04-03T01:42:10.537Z,64.80
2019-04-03T01:44:40.901Z,64.40
2019-04-03T01:47:10.893Z,64.30
2019-04-03T01:49:44.796Z,64.20
2019-04-03T01:52:14.684Z,64.10
2019-04-03T01:54:45.445Z,63.90
2019-04-03T01:57:15.162Z,63.90
2019-04-03T01:59:44.909Z,63.70
2019-04-03T02:02:14.653Z,63.10
2019-04-03T02:04:44.434Z,62.80
2019-04-03T02:07:15.064Z,62.70
2019-04-03T02:09:46.542Z,62.50
2019-04-03T02:12:17.955Z,62.50
2019-04-03T02:14:50.955Z,62.50
2019-04-03T02:17:20.141Z,62.50
2019-04-03T02:19:49.977Z,62.50
2019-04-03T02:22:19.794Z,62.50
2019-04-03T02:24:49.589Z,62.50
2019-04-03T02:27:20.295Z,62.30
2019-04-03T02:29:50.076Z,62.40
2019-04-03T02:32:23.289Z,62.30
2019-04-03T02:34:51.298Z,62.10
2019-04-03T02:37:21.113Z,62.00
2019-04-03T02:39:50.974Z,62.20
2019-04-03T02:42:20.781Z,62.20
2019-04-03T02:44:51.713Z,62.20
2019-04-03T02:47:21.712Z,62.10
2019-04-03T02:49:51.423Z,62.70
2019-04-03T02:52:24.317Z,61.90
2019-04-03T02:54:53.002Z,61.50
2019-04-03T02:57:22.830Z,61.30
2019-04-03T02:59:52.703Z,61.20
2019-04-03T03:02:22.629Z,61.10
2019-04-03T03:04:54.672Z,61.10
2019-04-03T03:07:24.040Z,61.00
2019-04-03T03:09:54.306Z,60.90
2019-04-03T03:12:27.640Z,61.10
2019-04-03T03:14:59.488Z,61.00
2019-04-03T03:17:30.190Z,60.80
2019-04-03T03:20:06.941Z,61.00
2019-04-03T03:22:34.918Z,60.90
2019-04-03T03:25:06.075Z,60.80
2019-04-03T03:27:40.629Z,60.80
2019-04-03T03:30:31.708Z,60.70
2019-04-03T03:32:40.953Z,61.00
2019-04-03T03:35:15.092Z,61.00
2019-04-03T03:37:42.905Z,61.00
2019-04-03T03:40:15.427Z,60.90
2019-04-03T03:42:44.842Z,61.10
2019-04-03T03:45:18.446Z,61.10
2019-04-03T03:47:46.639Z,61.00
2019-04-03T03:50:22.402Z,61.10
2019-04-03T03:52:51.290Z,61.20
2019-04-03T03:55:24.378Z,61.20
2019-04-03T03:57:54.478Z,61.30
2019-04-03T04:00:24.931Z,61.30
2019-04-03T04:02:55.303Z,61.40
2019-04-03T04:05:25.294Z,61.60
2019-04-03T04:07:55.825Z,61.60
2019-04-03T04:10:28.652Z,61.60
2019-04-03T04:13:00.143Z,61.60
2019-04-03T04:15:31.081Z,61.60
2019-04-03T04:18:01.526Z,61.60
2019-04-03T04:20:32.211Z,61.60
2019-04-03T04:23:02.966Z,61.60
2019-04-03T04:25:33.050Z,61.60
2019-04-03T04:28:03.170Z,61.60
2019-04-03T04:30:33.535Z,61.70
2019-04-03T04:33:03.518Z,61.80
2019-04-03T04:35:33.298Z,62.00
2019-04-03T04:38:03.181Z,62.10
2019-04-03T04:40:32.888Z,62.10
2019-04-03T04:43:04.137Z,62.10
2019-04-03T04:45:34.424Z,62.10
2019-04-03T04:48:04.605Z,62.10
2019-04-03T04:50:34.481Z,62.20
2019-04-03T04:53:04.390Z,62.10
2019-04-03T04:55:34.996Z,62.70
2019-04-03T04:58:05.920Z,62.40
2019-04-03T05:00:35.751Z,62.60
2019-04-03T05:03:05.795Z,62.60
2019-04-03T05:05:35.896Z,62.60
2019-04-03T05:08:05.743Z,62.80
2019-04-03T05:10:36.913Z,62.50
2019-04-03T05:13:07.238Z,62.50
2019-04-03T05:15:37.317Z,62.50
2019-04-03T05:18:07.091Z,62.60
2019-04-03T05:20:36.971Z,63.40
2019-04-03T05:23:06.778Z,62.50
2019-04-03T05:25:37.742Z,62.50
2019-04-03T05:28:07.651Z,63.50
2019-04-03T05:30:38.028Z,62.60
2019-04-03T05:33:10.620Z,62.50
2019-04-03T05:35:39.238Z,62.70
2019-04-03T05:38:09.028Z,62.70
2019-04-03T05:40:38.846Z,62.70
2019-04-03T05:43:08.633Z,62.50
2019-04-03T05:45:40.933Z,62.60
2019-04-03T05:48:13.017Z,62.40
2019-04-03T05:50:41.569Z,62.90
2019-04-03T05:53:11.533Z,62.50
2019-04-03T05:55:41.755Z,62.70
2019-04-03T05:58:11.699Z,62.60
2019-04-03T06:00:41.501Z,62.60
2019-04-03T06:03:11.233Z,62.70
2019-04-03T06:05:41.850Z,62.60
2019-04-03T06:08:12.737Z,62.40
2019-04-03T06:10:42.914Z,62.50
2019-04-03T06:13:12.958Z,62.30
2019-04-03T06:15:42.814Z,62.40
2019-04-03T06:18:12.621Z,62.40
2019-04-03T06:20:43.604Z,62.20
2019-04-03T06:23:13.929Z,62.70
2019-04-03T06:25:43.752Z,62.10
2019-04-03T06:28:13.797Z,62.20
2019-04-03T06:30:43.733Z,62.20
2019-04-03T06:33:13.809Z,62.10
2019-04-03T06:35:45.226Z,62.10
2019-04-03T06:38:15.634Z,61.80
2019-04-03T06:40:45.557Z,61.70
2019-04-03T06:43:16.928Z,62.00
2019-04-03T06:45:46.791Z,62.30
2019-04-03T06:48:16.514Z,62.10
2019-04-03T06:50:46.271Z,62.20
2019-04-03T06:53:16.066Z,62.70
2019-04-03T06:55:45.875Z,62.50
2019-04-03T06:58:15.758Z,62.80
2019-04-03T07:00:47.319Z,62.70
2019-04-03T07:03:17.743Z,62.60
2019-04-03T07:05:47.602Z,62.60
2019-04-03T07:08:28.645Z,62.70
2019-04-03T07:10:55.190Z,62.90
2019-04-03T07:13:20.957Z,63.30
2019-04-03T07:15:51.016Z,62.90
2019-04-03T07:18:20.721Z,62.80
2019-04-03T07:20:51.871Z,62.80
2019-04-03T07:23:22.001Z,63.20
2019-04-03T07:25:51.745Z,63.20
2019-04-03T07:28:21.537Z,63.00
2019-04-03T07:30:53.567Z,62.80
2019-04-03T07:33:24.102Z,62.60
2019-04-03T07:35:54.193Z,62.30
2019-04-03T07:38:24.620Z,62.40
2019-04-03T07:40:54.702Z,62.70
2019-04-03T07:43:26.691Z,62.60
2019-04-03T07:45:56.270Z,62.60
2019-04-03T07:48:26.212Z,62.20
2019-04-03T07:50:56.232Z,62.60
2019-04-03T07:53:27.213Z,62.30
2019-04-03T07:55:57.265Z,62.40
2019-04-03T07:58:30.393Z,62.30
2019-04-03T08:00:59.035Z,62.20
2019-04-03T08:03:29.014Z,62.20
2019-04-03T08:05:59.219Z,62.10
2019-04-03T08:08:29.559Z,62.40
2019-04-03T08:11:01.487Z,62.60
2019-04-03T08:13:31.222Z,62.60
2019-04-03T08:16:01.695Z,62.90
2019-04-03T08:18:31.888Z,61.80
2019-04-03T08:21:02.301Z,61.40
2019-04-03T08:23:32.548Z,60.90
2019-04-03T08:26:02.883Z,61.30
2019-04-03T08:28:32.690Z,61.20
2019-04-03T08:31:02.583Z,61.20
2019-04-03T08:33:33.546Z,61.30
2019-04-03T08:36:06.641Z,61.90
2019-04-03T08:38:35.343Z,61.60
2019-04-03T08:41:05.282Z,61.80
2019-04-03T08:43:35.556Z,62.10
2019-04-03T08:46:05.514Z,62.10
2019-04-03T08:48:35.438Z,62.20
2019-04-03T08:51:06.057Z,62.20
2019-04-03T08:53:38.542Z,62.90
2019-04-03T08:56:07.776Z,62.90
2019-04-03T08:58:37.710Z,63.00
2019-04-03T09:01:10.314Z,62.50
2019-04-03T09:03:38.845Z,62.80
2019-04-03T09:06:08.642Z,62.30
2019-04-03T09:08:38.468Z,62.50
2019-04-03T09:11:08.329Z,62.70
2019-04-03T09:13:38.222Z,62.90
2019-04-03T09:16:10.129Z,62.70
2019-04-03T09:18:39.751Z,62.80
2019-04-03T09:21:09.719Z,62.40
2019-04-03T09:23:39.490Z,62.50
2019-04-03T09:26:09.302Z,62.70
2019-04-03T09:28:41.241Z,62.70
2019-04-03T09:31:10.737Z,63.20
2019-04-03T09:33:40.627Z,62.70
2019-04-03T09:36:10.509Z,62.70
2019-04-03T09:38:41.526Z,63.10
2019-04-03T09:41:11.995Z,62.90
2019-04-03T09:43:42.103Z,62.80
2019-04-03T09:46:12.276Z,62.10
2019-04-03T09:48:42.410Z,61.80
2019-04-03T09:51:12.423Z,62.10
2019-04-03T09:53:42.485Z,62.10
2019-04-03T09:56:12.294Z,62.10
2019-04-03T09:58:42.086Z,62.10
2019-04-03T10:01:15.705Z,62.70
2019-04-03T10:03:44.708Z,62.30
2019-04-03T10:06:14.588Z,63.40
2019-04-03T10:08:44.471Z,63.80
2019-04-03T10:11:15.512Z,65.00
2019-04-03T10:13:45.600Z,63.00
2019-04-03T10:16:16.702Z,62.00
2019-04-03T10:18:47.150Z,61.30
2019-04-03T10:21:17.793Z,60.60
2019-04-03T10:23:48.782Z,59.90
2019-04-03T10:26:18.766Z,59.50
2019-04-03T10:28:48.609Z,59.40
2019-04-03T10:31:18.399Z,59.10
2019-04-03T10:33:48.129Z,59.10
2019-04-03T10:36:18.621Z,59.30
2019-04-03T10:38:49.240Z,59.50
2019-04-03T10:41:19.517Z,59.50
2019-04-03T10:43:49.861Z,59.80
2019-04-03T10:46:20.103Z,60.70
2019-04-03T10:48:50.105Z,60.20
2019-04-03T10:51:19.841Z,60.90
2019-04-03T10:53:51.644Z,60.30
2019-04-03T10:56:21.204Z,60.40
2019-04-03T10:58:51.145Z,60.20
2019-04-03T11:01:21.275Z,60.70
2019-04-03T11:03:51.147Z,60.00
2019-04-03T11:06:21.225Z,60.40
2019-04-03T11:08:51.198Z,60.70
2019-04-03T11:11:21.274Z,60.80
2019-04-03T11:13:51.223Z,60.90
2019-04-03T11:16:21.404Z,61.00
2019-04-03T11:18:58.568Z,61.40
2019-04-03T11:21:22.751Z,61.90
2019-04-03T11:23:52.600Z,61.80
2019-04-03T11:26:24.515Z,62.20
2019-04-03T11:28:54.153Z,62.50
2019-04-03T11:31:27.936Z,62.30
2019-04-03T11:33:55.531Z,62.00
2019-04-03T11:36:29.447Z,62.00
2019-04-03T11:39:10.457Z,61.80
2019-04-03T11:41:28.461Z,62.10
2019-04-03T11:43:58.548Z,61.90
2019-04-03T11:46:28.478Z,61.40
2019-04-03T11:48:58.201Z,61.30
2019-04-03T11:51:29.537Z,62.00
2019-04-03T11:53:59.583Z,61.60
2019-04-03T11:56:29.580Z,60.20
2019-04-03T11:59:00.602Z,60.60
2019-04-03T12:01:30.924Z,60.60
2019-04-03T12:04:00.673Z,59.80
2019-04-03T12:06:30.404Z,60.50
2019-04-03T12:09:01.217Z,60.40
2019-04-03T12:11:32.799Z,60.40
2019-04-03T12:14:02.679Z,60.50
2019-04-03T12:16:32.634Z,60.00
2019-04-03T12:19:04.436Z,60.10
2019-04-03T12:21:34.493Z,59.70
2019-04-03T12:24:04.873Z,60.00
2019-04-03T12:26:35.776Z,59.70
2019-04-03T12:29:07.490Z,59.10
2019-04-03T12:31:37.342Z,60.00
2019-04-03T12:34:07.538Z,59.40
2019-04-03T12:36:37.628Z,59.10
2019-04-03T12:39:13.597Z,58.60
2019-04-03T12:41:43.783Z,58.50
2019-04-03T12:44:14.006Z,59.40
2019-04-03T12:46:43.857Z,59.10
2019-04-03T12:49:13.838Z,59.80
2019-04-03T12:51:44.527Z,59.20
2019-04-03T12:54:14.386Z,58.20
2019-04-03T12:56:45.181Z,57.40
2019-04-03T12:59:15.053Z,57.30
2019-04-03T13:01:44.921Z,56.70
2019-04-03T13:04:14.722Z,56.60
2019-04-03T13:06:44.535Z,56.40
2019-04-03T13:09:15.026Z,56.40
2019-04-03T13:11:45.232Z,56.60
2019-04-03T13:14:23.830Z,57.10
2019-04-03T13:16:47.553Z,57.20
2019-04-03T13:19:17.417Z,56.50
2019-04-03T13:21:47.209Z,56.50
2019-04-03T13:24:17.601Z,56.50
2019-04-03T13:26:47.450Z,57.50
2019-04-03T13:29:17.494Z,57.10
2019-04-03T13:31:47.749Z,56.80
2019-04-03T13:34:17.628Z,57.60
2019-04-03T13:36:50.459Z,57.40
2019-04-03T13:39:19.056Z,58.20
2019-04-03T13:41:48.838Z,57.60
2019-04-03T13:44:18.745Z,57.70
2019-04-03T13:46:48.888Z,58.00
2019-04-03T13:49:19.631Z,58.00
2019-04-03T13:51:50.637Z,57.70
2019-04-03T13:54:20.610Z,57.80
2019-04-03T13:56:53.021Z,57.20
2019-04-03T13:59:23.042Z,57.20
2019-04-03T14:01:53.392Z,57.30
2019-04-03T14:04:23.555Z,57.50
2019-04-03T14:06:53.901Z,57.40
2019-04-03T14:09:24.950Z,57.40
2019-04-03T14:11:54.934Z,56.80
2019-04-03T14:14:24.737Z,56.60
2019-04-03T14:16:54.829Z,56.50
2019-04-03T14:19:25.339Z,56.10
2019-04-03T14:21:58.787Z,56.60
2019-04-03T14:24:39.394Z,56.70
2019-04-03T14:26:58.891Z,56.10
2019-04-03T14:29:29.621Z,56.20
2019-04-03T14:31:59.978Z,56.10
2019-04-03T14:34:30.667Z,57.00
2019-04-03T14:37:00.812Z,56.40
2019-04-03T14:39:30.883Z,55.90
2019-04-03T14:42:00.869Z,55.90
2019-04-03T14:44:30.729Z,55.80
2019-04-03T14:47:00.498Z,56.40
2019-04-03T14:49:31.751Z,55.70
2019-04-03T14:52:01.807Z,56.00
2019-04-03T14:54:31.750Z,56.00
2019-04-03T14:57:11.113Z,56.10
2019-04-03T14:59:35.192Z,56.10
2019-04-03T15:02:04.817Z,55.90
2019-04-03T15:04:37.121Z,55.90
2019-04-03T15:07:09.252Z,56.10
2019-04-03T15:09:38.787Z,56.30
2019-04-03T15:12:12.195Z,56.40
2019-04-03T15:14:41.406Z,56.40
2019-04-03T15:17:11.561Z,56.40
2019-04-03T15:19:43.141Z,56.60
2019-04-03T15:22:13.249Z,57.20
2019-04-03T15:24:44.160Z,56.70
2019-04-03T15:27:14.851Z,57.20
2019-04-03T15:29:45.228Z,57.30
2019-04-03T15:32:16.111Z,57.10
2019-04-03T15:34:46.633Z,57.20
2019-04-03T15:37:16.435Z,57.10
2019-04-03T15:39:49.038Z,57.30
2019-04-03T15:42:17.671Z,57.30
2019-04-03T15:44:51.184Z,57.30
2019-04-03T15:47:34.314Z,57.10
2019-04-03T15:49:52.221Z,57.30
2019-04-03T15:52:22.912Z,57.20
2019-04-03T15:54:53.192Z,57.60
2019-04-03T15:57:23.223Z,57.50
2019-04-03T15:59:53.352Z,57.90
2019-04-03T16:02:23.682Z,58.20
2019-04-03T16:04:53.740Z,57.80
2019-04-03T16:07:23.653Z,58.30
2019-04-03T16:09:53.593Z,57.70
2019-04-03T16:12:23.451Z,57.50
2019-04-03T16:14:53.276Z,57.30
2019-04-03T16:17:23.080Z,57.70
2019-04-03T16:19:53.104Z,57.60
2019-04-03T16:22:23.875Z,57.70
2019-04-03T16:24:54.468Z,58.50
2019-04-03T16:27:24.354Z,57.80
2019-04-03T16:29:54.318Z,57.90
2019-04-03T16:32:27.335Z,57.90
2019-04-03T16:34:55.587Z,58.10
2019-04-03T16:37:25.537Z,58.20
2019-04-03T16:39:57.258Z,58.20
2019-04-03T16:42:27.655Z,58.30
2019-04-03T16:44:58.233Z,58.30
2019-04-03T16:47:28.329Z,58.50
2019-04-03T16:49:58.121Z,58.60
2019-04-03T16:52:30.150Z,58.80
2019-04-03T16:54:59.335Z,58.90
2019-04-03T16:57:29.167Z,58.90
2019-04-03T16:59:58.961Z,58.80
2019-04-03T17:02:29.822Z,58.80
2019-04-03T17:04:59.860Z,58.90
2019-04-03T17:07:29.720Z,59.00
2019-04-03T17:09:59.552Z,59.00
2019-04-03T17:12:29.321Z,59.00
2019-04-03T17:14:59.329Z,59.00
2019-04-03T17:17:29.248Z,59.20
2019-04-03T17:19:59.046Z,59.30
2019-04-03T17:22:28.793Z,59.30
2019-04-03T17:24:58.999Z,59.30
2019-04-03T17:27:30.190Z,59.30
2019-04-03T17:30:00.253Z,59.40
2019-04-03T17:32:31.194Z,59.30
2019-04-03T17:35:01.551Z,59.60
2019-04-03T17:37:31.911Z,59.60
2019-04-03T17:40:04.080Z,59.60
2019-04-03T17:42:34.330Z,59.60
2019-04-03T17:45:04.346Z,59.70
2019-04-03T17:47:34.149Z,60.00
2019-04-03T17:50:06.194Z,59.80
2019-04-03T17:52:36.967Z,59.90
2019-04-03T17:55:10.048Z,59.90
2019-04-03T17:57:39.927Z,60.10
2019-04-03T18:00:12.326Z,60.50
2019-04-03T18:02:42.189Z,60.30
2019-04-03T18:05:12.144Z,60.40
2019-04-03T18:07:43.190Z,60.40
2019-04-03T18:10:13.470Z,60.40
2019-04-03T18:12:45.608Z,60.40
2019-04-03T18:15:15.882Z,60.50
2019-04-03T18:17:45.745Z,60.70
2019-04-03T18:20:15.829Z,60.90
2019-04-03T18:22:45.786Z,61.20
2019-04-03T18:25:15.794Z,61.10
2019-04-03T18:27:45.813Z,61.60
2019-04-03T18:30:15.790Z,61.60
2019-04-03T18:32:46.033Z,61.60
2019-04-03T18:35:16.634Z,61.90
2019-04-03T18:37:46.571Z,62.00
2019-04-03T18:40:18.674Z,62.20
2019-04-03T18:42:50.271Z,62.50
2019-04-03T18:45:25.591Z,62.60
2019-04-03T18:47:51.416Z,62.80
2019-04-03T18:50:21.389Z,63.00
2019-04-03T18:52:51.185Z,63.40
2019-04-03T18:55:20.967Z,63.60
2019-04-03T18:57:50.678Z,63.90
2019-04-03T19:00:21.626Z,64.20
2019-04-03T19:02:51.483Z,64.50
2019-04-03T19:05:21.304Z,65.00
2019-04-03T19:07:51.086Z,65.20
2019-04-03T19:10:23.153Z,65.20
2019-04-03T19:12:52.601Z,65.30
2019-04-03T19:15:22.519Z,65.60
2019-04-03T19:18:00.551Z,65.60
2019-04-03T19:20:27.794Z,66.40
2019-04-03T19:23:02.919Z,66.60
2019-04-03T19:25:29.670Z,67.00
2019-04-03T19:28:00.091Z,67.50
2019-04-03T19:30:29.954Z,67.50
2019-04-03T19:33:00.108Z,67.90
2019-04-03T19:35:29.961Z,67.90
2019-04-03T19:37:59.905Z,68.20
2019-04-03T19:40:29.758Z,68.70
2019-04-03T19:42:59.555Z,68.00
2019-04-03T19:45:29.383Z,68.10
2019-04-03T19:47:59.234Z,68.30
2019-04-03T19:50:31.473Z,68.50
2019-04-03T19:53:00.767Z,68.20
2019-04-03T19:55:30.598Z,68.10
2019-04-03T19:58:00.413Z,68.30
2019-04-03T20:00:30.346Z,68.30
2019-04-03T20:03:00.256Z,68.50
2019-04-03T20:05:31.404Z,68.70
2019-04-03T20:08:01.834Z,68.80
2019-04-03T20:10:33.790Z,68.40
2019-04-03T20:13:03.635Z,68.00
2019-04-03T20:15:33.443Z,67.90
2019-04-03T20:18:03.337Z,67.70
2019-04-03T20:20:33.662Z,68.10
2019-04-03T20:23:03.717Z,68.30
2019-04-03T20:25:33.438Z,68.40
2019-04-03T20:28:03.286Z,68.60
2019-04-03T20:30:35.330Z,68.60
2019-04-03T20:33:05.189Z,68.60
2019-04-03T20:35:34.989Z,68.90
2019-04-03T20:38:04.785Z,68.80
2019-04-03T20:40:35.709Z,69.00
2019-04-03T20:43:05.577Z,68.90
2019-04-03T20:45:35.706Z,68.80
2019-04-03T20:48:05.574Z,68.80
2019-04-03T20:50:37.732Z,68.80
2019-04-03T20:53:06.917Z,68.50
2019-04-03T20:55:36.728Z,68.60
2019-04-03T20:58:06.829Z,68.70
2019-04-03T21:00:36.767Z,68.50
2019-04-03T21:03:06.577Z,68.70
2019-04-03T21:05:36.297Z,68.70
2019-04-03T21:08:06.173Z,68.60
2019-04-03T21:10:35.992Z,68.60
2019-04-03T21:13:06.903Z,68.70
2019-04-03T21:15:37.435Z,68.80
2019-04-03T21:18:07.153Z,68.50
2019-04-03T21:20:36.985Z,68.60
2019-04-03T21:23:06.762Z,68.50
2019-04-03T21:25:36.662Z,68.70
2019-04-03T21:28:08.982Z,68.70
2019-04-03T21:30:39.438Z,68.80
2019-04-03T21:33:09.200Z,68.70
2019-04-03T21:35:39.043Z,68.30
2019-04-03T21:38:10.647Z,68.40
2019-04-03T21:40:41.153Z,68.50
2019-04-03T21:43:10.954Z,68.40
2019-04-03T21:45:40.677Z,68.50
2019-04-03T21:48:11.942Z,68.40
2019-04-03T21:50:41.878Z,68.50
2019-04-03T21:53:11.613Z,68.60
2019-04-03T21:55:41.593Z,68.70
2019-04-03T21:58:11.390Z,68.90
2019-04-03T22:01:25.329Z,69.20
2019-04-03T22:03:55.201Z,68.90
2019-04-03T22:06:27.671Z,68.80
2019-04-03T22:08:59.674Z,68.80
2019-04-03T22:11:28.174Z,69.00
2019-04-03T22:13:57.902Z,68.90
2019-04-03T22:16:27.713Z,69.20
2019-04-03T22:18:57.442Z,69.10
2019-04-03T22:21:27.229Z,69.20
2019-04-03T22:23:57.102Z,69.20
2019-04-03T22:26:26.904Z,69.90
2019-04-03T22:28:56.629Z,69.30
2019-04-03T22:31:26.447Z,69.20
2019-04-03T22:33:58.628Z,69.40
2019-04-03T22:36:27.777Z,69.60
2019-04-03T22:38:57.573Z,69.70
2019-04-03T22:41:28.389Z,69.80
2019-04-03T22:43:58.201Z,69.80
2019-04-03T22:46:27.989Z,69.70
2019-04-03T22:48:58.091Z,69.70
2019-04-03T22:51:30.315Z,69.60
2019-04-03T22:54:00.168Z,69.20
2019-04-03T22:56:30.004Z,69.10
2019-04-03T22:58:59.736Z,69.20
2019-04-03T23:01:29.900Z,69.10
2019-04-03T23:04:00.366Z,69.30
2019-04-03T23:06:30.077Z,69.40
2019-04-03T23:08:59.809Z,69.40
2019-04-03T23:11:30.127Z,69.60
2019-04-03T23:14:02.450Z,69.50
2019-04-03T23:16:32.160Z,69.70
2019-04-03T23:19:01.957Z,69.60
2019-04-03T23:21:31.830Z,69.70
2019-04-03T23:24:01.636Z,69.90
2019-04-03T23:26:32.062Z,70.00
2019-04-03T23:29:03.078Z,70.00
2019-04-03T23:31:34.138Z,70.00
2019-04-03T23:34:03.950Z,70.20
2019-04-03T23:36:33.665Z,70.10
2019-04-03T23:39:05.337Z,70.30
2019-04-03T23:41:36.570Z,70.30
2019-04-03T23:44:06.777Z,70.20
2019-04-03T23:46:36.725Z,70.20
2019-04-03T23:49:06.470Z,70.20
2019-04-03T23:51:36.338Z,70.20
2019-04-03T23:54:06.163Z,70.30
2019-04-03T23:56:36.996Z,70.20
2019-04-03T23:59:07.519Z,70.30
